LFMN/NCE METAR and TAF weather

Enter ICAO airport designator
Station Type Date Time Source
LFMN METAR 2020/09/22 06:30 UTC NOAA

LFMN 220630Z 33010KT 9999 VCSH FEW050CB SCT066 BKN140 20/15 Q1014 TEMPO SHRA


Station Type Date Time Source
LFMN Decoded METAR 2020/09/22 06:30 UTC NOAA

Nice, France (LFMN) 43-39N 007-12E 10M
Sep 22, 2020 - 02:30 AM EDT / 2020.09.22 0630 UTC
Wind: from the NNW (330 degrees) at 12 MPH (10 KT):0
Visibility: greater than 7 mile(s):0
Sky conditions: mostly cloudy
Weather: showers in the vicinity; Cumulonimbus clouds observed
Temperature: 68 F (20 C)
Dew Point: 59 F (15 C)
Relative Humidity: 72%
Pressure (altimeter): 29.94 in. Hg (1014 hPa)
ob: LFMN 220630Z 33010KT 9999 VCSH FEW050CB SCT066 BKN140 20/15 Q1014 TEMPO SHRA
cycle: 6

Station Type Date Time Source
LFMN TAF 2020/09/22 05:37 UTC NOAA

TAF
AMD LFMN 220533Z 2205/2309 34010KT CAVOK
BECMG 2205/2206 FEW040TCU BKN200
BECMG 2208/2210 12010KT
TEMPO 2205/2216 SHRA FEW020CB BKN030 PROB30
TEMPO 2205/2212 TSRA
TEMPO 2212/2215 VRB15G30KT 3000 TSRA SCT010 BKN020CB
BECMG 2215/2217 26010KT BKN100
BECMG 2219/2221 34010KT NSC PROB30
TEMPO 2300/2303 26010KT

Example: see airport list